createdAt,value
2018-11-29T00:00:31.579Z,17.47
2018-11-29T00:02:59.765Z,16.43
2018-11-29T00:05:27.945Z,17.10
2018-11-29T00:07:56.123Z,18.73
2018-11-29T00:10:24.316Z,18.03
2018-11-29T00:12:52.523Z,17.67
2018-11-29T00:15:20.700Z,17.10
2018-11-29T00:17:48.836Z,18.43
2018-11-29T00:20:17.824Z,18.20
2018-11-29T00:22:46.888Z,18.77
2018-11-29T00:25:15.672Z,19.43
2018-11-29T00:27:43.984Z,18.77
2018-11-29T00:30:16.236Z,19.93
2018-11-29T00:32:44.376Z,18.03
2018-11-29T00:35:13.440Z,17.57
2018-11-29T00:37:41.661Z,19.80
2018-11-29T00:40:16.806Z,19.67
2018-11-29T00:42:44.936Z,19.60
2018-11-29T00:45:18.059Z,20.03
2018-11-29T00:47:46.816Z,19.40
2018-11-29T00:50:15.584Z,22.10
2018-11-29T00:52:45.024Z,20.70
2018-11-29T00:55:16.273Z,21.10
2018-11-29T00:57:44.446Z,20.07
2018-11-29T01:00:15.049Z,21.63
2018-11-29T01:02:43.232Z,20.10
2018-11-29T01:05:11.472Z,20.40
2018-11-29T01:07:39.694Z,19.77
2018-11-29T01:10:12.798Z,21.00
2018-11-29T01:12:41.155Z,19.40
2018-11-29T01:15:12.307Z,19.87
2018-11-29T01:17:40.467Z,20.33
2018-11-29T01:20:10.804Z,20.47
2018-11-29T01:22:38.945Z,19.47
2018-11-29T01:25:08.580Z,19.73
2018-11-29T01:27:36.746Z,19.00
2018-11-29T01:30:10.470Z,19.33
2018-11-29T01:32:38.626Z,19.67
2018-11-29T01:35:08.048Z,19.83
2018-11-29T01:37:36.193Z,20.47
2018-11-29T01:40:04.572Z,20.17
2018-11-29T01:42:32.720Z,20.20
2018-11-29T01:45:00.877Z,19.10
2018-11-29T01:47:29.027Z,20.70
2018-11-29T01:49:57.295Z,19.43
2018-11-29T01:52:25.452Z,19.70
2018-11-29T01:54:53.610Z,18.27
2018-11-29T01:57:21.744Z,18.13
2018-11-29T01:59:49.899Z,20.63
2018-11-29T02:02:18.058Z,19.53
2018-11-29T02:04:46.188Z,18.27
2018-11-29T02:07:14.348Z,19.20
2018-11-29T02:09:42.556Z,19.13
2018-11-29T02:12:10.704Z,19.17
2018-11-29T02:14:38.858Z,19.53
2018-11-29T02:17:06.992Z,18.33
2018-11-29T02:19:35.149Z,17.13
2018-11-29T02:22:03.289Z,18.40
2018-11-29T02:24:31.455Z,18.70
2018-11-29T02:26:59.589Z,18.40
2018-11-29T02:29:27.743Z,20.67
2018-11-29T02:31:55.904Z,19.00
2018-11-29T02:34:24.100Z,20.20
2018-11-29T02:36:52.243Z,18.77
2018-11-29T02:39:20.439Z,18.37
2018-11-29T02:41:48.592Z,19.70
2018-11-29T02:44:16.746Z,19.30
2018-11-29T02:46:44.920Z,21.10
2018-11-29T02:49:13.094Z,19.90
2018-11-29T02:51:41.239Z,19.63
2018-11-29T02:54:09.399Z,18.17
2018-11-29T02:56:37.548Z,17.57
2018-11-29T02:59:05.813Z,18.60
2018-11-29T03:01:33.964Z,20.43
2018-11-29T03:04:02.125Z,19.40
2018-11-29T03:06:30.256Z,19.77
2018-11-29T03:08:58.402Z,19.27
2018-11-29T03:11:26.539Z,18.80
2018-11-29T03:13:54.684Z,19.87
2018-11-29T03:16:22.873Z,19.87
2018-11-29T03:18:51.131Z,18.27
2018-11-29T03:21:19.289Z,19.37
2018-11-29T03:23:47.444Z,17.77
2018-11-29T03:26:15.595Z,18.80
2018-11-29T03:28:43.772Z,18.83
2018-11-29T03:31:11.922Z,18.43
2018-11-29T03:33:40.081Z,17.40
2018-11-29T03:36:08.350Z,17.90
2018-11-29T03:38:36.516Z,18.27
2018-11-29T03:41:04.781Z,18.17
2018-11-29T03:43:32.928Z,18.77
2018-11-29T03:46:01.082Z,18.50
2018-11-29T03:48:29.222Z,17.50
2018-11-29T03:50:57.375Z,17.97
2018-11-29T03:53:25.556Z,16.03
2018-11-29T03:55:53.724Z,17.70
2018-11-29T03:58:21.857Z,17.17
2018-11-29T04:00:50.007Z,16.77
2018-11-29T04:03:18.168Z,16.67
2018-11-29T04:05:46.350Z,17.03
2018-11-29T04:08:14.495Z,18.00
2018-11-29T04:10:42.663Z,17.40
2018-11-29T04:13:10.843Z,16.43
2018-11-29T04:15:39.007Z,16.70
2018-11-29T04:18:07.212Z,15.97
2018-11-29T04:20:35.377Z,18.23
2018-11-29T04:23:03.507Z,16.23
2018-11-29T04:25:31.671Z,17.40
2018-11-29T04:27:59.840Z,16.63
2018-11-29T04:30:28.308Z,16.43
2018-11-29T04:32:56.468Z,17.60
2018-11-29T04:35:24.645Z,15.60
2018-11-29T04:37:52.806Z,18.10
2018-11-29T04:40:20.997Z,17.33
2018-11-29T04:42:49.183Z,17.87
2018-11-29T04:45:17.745Z,19.00
2018-11-29T04:47:46.433Z,18.03
2018-11-29T04:50:15.439Z,18.33
2018-11-29T04:52:43.609Z,17.30
2018-11-29T04:55:11.836Z,18.53
2018-11-29T04:57:39.985Z,17.97
2018-11-29T05:00:13.940Z,18.73
2018-11-29T05:02:42.083Z,19.93
2018-11-29T05:05:10.701Z,19.37
2018-11-29T05:07:38.845Z,16.83
2018-11-29T05:10:08.692Z,19.37
2018-11-29T05:12:36.838Z,18.67
2018-11-29T05:15:06.767Z,20.07
2018-11-29T05:17:34.929Z,20.30
2018-11-29T05:20:03.068Z,20.70
2018-11-29T05:22:31.212Z,19.13
2018-11-29T05:24:59.349Z,17.73
2018-11-29T05:27:27.499Z,18.33
2018-11-29T05:29:55.641Z,18.40
2018-11-29T05:32:23.797Z,17.47
2018-11-29T05:34:51.965Z,16.70
2018-11-29T05:37:20.126Z,18.17
2018-11-29T05:39:48.412Z,16.77
2018-11-29T05:42:16.568Z,17.13
2018-11-29T05:44:45.083Z,16.17
2018-11-29T05:47:13.559Z,17.17
2018-11-29T05:49:42.095Z,17.10
2018-11-29T05:52:10.585Z,16.93
2018-11-29T05:54:39.032Z,18.20
2018-11-29T05:57:07.505Z,17.30
2018-11-29T05:59:35.663Z,15.77
2018-11-29T06:02:04.204Z,16.50
2018-11-29T06:04:32.347Z,17.30
2018-11-29T06:07:00.503Z,18.50
2018-11-29T06:09:28.947Z,16.83
2018-11-29T06:11:57.136Z,17.60
2018-11-29T06:14:25.414Z,17.30
2018-11-29T06:16:54.004Z,17.90
2018-11-29T06:19:22.279Z,17.83
2018-11-29T06:21:50.943Z,17.83
2018-11-29T06:24:19.129Z,16.80
2018-11-29T06:26:47.562Z,16.70
2018-11-29T06:29:15.736Z,17.70
2018-11-29T06:31:44.219Z,16.23
2018-11-29T06:34:12.386Z,17.63
2018-11-29T06:36:40.717Z,18.33
2018-11-29T06:39:09.367Z,18.93
2018-11-29T06:41:37.735Z,17.87
2018-11-29T06:44:05.889Z,18.53
2018-11-29T06:46:34.245Z,20.17
2018-11-29T06:49:02.382Z,19.03
2018-11-29T06:51:30.632Z,18.50
2018-11-29T06:53:59.686Z,17.43
2018-11-29T06:56:27.877Z,18.40
2018-11-29T06:58:56.027Z,19.37
2018-11-29T07:01:24.207Z,18.60
2018-11-29T07:03:52.340Z,19.77
2018-11-29T07:06:20.498Z,19.97
2018-11-29T07:08:48.673Z,20.93
2018-11-29T07:11:16.823Z,22.03
2018-11-29T07:13:45.200Z,20.67
2018-11-29T07:16:13.408Z,20.77
2018-11-29T07:18:41.580Z,21.20
2018-11-29T07:21:21.327Z,21.87
2018-11-29T07:23:49.805Z,21.37
2018-11-29T07:26:18.480Z,20.40
2018-11-29T07:28:47.014Z,20.23
2018-11-29T07:31:15.156Z,21.90
2018-11-29T07:33:43.292Z,21.37
2018-11-29T07:36:11.430Z,20.10
2018-11-29T07:38:39.587Z,20.10
2018-11-29T07:41:07.742Z,21.13
2018-11-29T07:43:36.350Z,20.73
2018-11-29T07:46:04.503Z,21.10
2018-11-29T07:48:32.707Z,20.37
2018-11-29T07:51:00.853Z,18.73
2018-11-29T07:53:29.056Z,22.27
2018-11-29T07:55:57.578Z,24.23
2018-11-29T07:58:25.979Z,21.97
2018-11-29T08:00:54.112Z,21.93
2018-11-29T08:03:22.734Z,21.57
2018-11-29T08:05:50.957Z,21.13
2018-11-29T08:08:19.282Z,21.60
2018-11-29T08:10:47.449Z,19.93
2018-11-29T08:13:15.584Z,18.13
2018-11-29T08:15:44.112Z,17.83
2018-11-29T08:18:12.328Z,17.33
2018-11-29T08:20:40.490Z,16.40
2018-11-29T08:23:09.135Z,15.00
2018-11-29T08:25:37.296Z,15.97
2018-11-29T08:28:05.483Z,15.23
2018-11-29T08:30:33.616Z,15.73
2018-11-29T08:33:02.082Z,15.20
2018-11-29T08:35:30.299Z,14.60
2018-11-29T08:37:58.432Z,14.93
2018-11-29T08:40:26.556Z,13.27
2018-11-29T08:42:54.757Z,13.70
2018-11-29T08:45:22.894Z,13.63
2018-11-29T08:47:51.037Z,13.13
2018-11-29T08:50:19.375Z,12.67
2018-11-29T08:52:47.517Z,13.60
2018-11-29T08:55:17.620Z,13.27
2018-11-29T08:57:46.262Z,13.53
2018-11-29T09:00:16.424Z,14.43
2018-11-29T09:02:44.921Z,13.57
2018-11-29T09:05:13.437Z,13.70
2018-11-29T09:07:42.294Z,13.37
2018-11-29T09:10:16.721Z,13.10
2018-11-29T09:12:44.862Z,12.47
2018-11-29T09:15:13.910Z,12.83
2018-11-29T09:17:42.190Z,11.63
2018-11-29T09:20:16.505Z,11.93
2018-11-29T09:22:44.647Z,11.40
2018-11-29T09:25:14.076Z,12.90
2018-11-29T09:27:42.223Z,14.03
2018-11-29T09:30:15.435Z,13.73
2018-11-29T09:32:44.344Z,14.43
2018-11-29T09:35:12.544Z,15.67
2018-11-29T09:37:40.753Z,16.50
2018-11-29T09:40:12.817Z,16.37
2018-11-29T09:42:41.006Z,14.30
2018-11-29T09:45:13.483Z,15.53
2018-11-29T09:47:41.680Z,15.10
2018-11-29T09:50:11.481Z,16.27
2018-11-29T09:52:40.344Z,15.23
2018-11-29T09:55:09.769Z,17.07
2018-11-29T09:57:38.148Z,17.60
2018-11-29T10:00:12.557Z,16.77
2018-11-29T10:02:41.028Z,15.57
2018-11-29T10:05:10.729Z,16.40
2018-11-29T10:07:39.259Z,16.43
2018-11-29T10:10:09.196Z,16.87
2018-11-29T10:12:37.343Z,15.90
2018-11-29T10:15:07.710Z,17.13
2018-11-29T10:17:35.836Z,16.57
2018-11-29T10:20:04.671Z,15.40
2018-11-29T10:22:33.201Z,16.80
2018-11-29T10:25:01.337Z,16.27
2018-11-29T10:27:29.677Z,16.20
2018-11-29T10:29:57.821Z,16.37
2018-11-29T10:32:26.173Z,16.47
2018-11-29T10:34:54.311Z,16.03
2018-11-29T10:37:22.472Z,15.93
2018-11-29T10:39:50.608Z,17.17
2018-11-29T10:42:18.946Z,17.57
2018-11-29T10:44:47.304Z,18.17
2018-11-29T10:47:15.467Z,16.57
2018-11-29T10:49:43.653Z,17.50
2018-11-29T10:52:11.823Z,17.20
2018-11-29T10:54:40.603Z,15.70
2018-11-29T10:57:08.818Z,15.90
2018-11-29T10:59:37.268Z,15.47
2018-11-29T11:02:11.158Z,15.67
2018-11-29T11:04:39.309Z,15.17
2018-11-29T11:07:07.837Z,15.87
2018-11-29T11:09:36.022Z,14.60
2018-11-29T11:12:04.380Z,15.83
2018-11-29T11:14:32.501Z,15.40
2018-11-29T11:17:00.625Z,15.13
2018-11-29T11:19:28.761Z,15.47
2018-11-29T11:21:57.947Z,16.57
2018-11-29T11:24:25.075Z,17.10
2018-11-29T11:26:53.716Z,17.30
2018-11-29T11:29:21.952Z,17.03
2018-11-29T11:31:50.079Z,14.90
2018-11-29T11:34:18.604Z,15.00
2018-11-29T11:36:46.743Z,15.47
2018-11-29T11:39:14.895Z,14.13
2018-11-29T11:41:43.062Z,14.80
2018-11-29T11:44:11.252Z,13.90
2018-11-29T11:46:42.901Z,13.33
2018-11-29T11:49:11.384Z,14.37
2018-11-29T11:51:39.825Z,14.43
2018-11-29T11:54:07.967Z,14.20
2018-11-29T11:56:36.105Z,13.17
2018-11-29T11:59:04.776Z,13.70
2018-11-29T12:01:32.949Z,13.67
2018-11-29T12:04:01.224Z,13.63
2018-11-29T12:06:29.796Z,13.00
2018-11-29T12:08:58.378Z,14.43
2018-11-29T12:11:26.625Z,13.77
2018-11-29T12:13:54.771Z,13.30
2018-11-29T12:16:23.088Z,13.37
2018-11-29T12:18:51.305Z,13.87
2018-11-29T12:21:19.497Z,13.23
2018-11-29T12:23:47.784Z,13.57
2018-11-29T12:26:15.960Z,13.43
2018-11-29T12:28:44.128Z,13.60
2018-11-29T12:31:12.314Z,12.47
2018-11-29T12:33:40.476Z,12.43
2018-11-29T12:36:08.949Z,13.33
2018-11-29T12:38:37.500Z,13.60
2018-11-29T12:41:06.030Z,12.47
2018-11-29T12:43:34.214Z,13.10
2018-11-29T12:46:02.388Z,12.43
2018-11-29T12:48:30.547Z,13.63
2018-11-29T12:50:58.870Z,13.07
2018-11-29T12:53:27.048Z,13.13
2018-11-29T12:55:55.227Z,12.67
2018-11-29T12:58:23.496Z,13.23
2018-11-29T13:00:51.658Z,13.67
2018-11-29T13:03:19.780Z,13.50
2018-11-29T13:05:47.916Z,13.20
2018-11-29T13:08:16.175Z,13.50
2018-11-29T13:10:44.343Z,14.20
2018-11-29T13:13:12.494Z,13.87
2018-11-29T13:15:41.107Z,13.20
2018-11-29T13:18:09.485Z,13.27
2018-11-29T13:20:37.799Z,13.40
2018-11-29T13:23:06.476Z,13.77
2018-11-29T13:25:34.669Z,13.40
2018-11-29T13:28:02.868Z,13.30
2018-11-29T13:30:31.634Z,14.13
2018-11-29T13:33:00.061Z,13.03
2018-11-29T13:35:31.353Z,14.20
2018-11-29T13:38:01.762Z,13.20
2018-11-29T13:40:30.095Z,14.47
2018-11-29T13:42:58.529Z,13.47
2018-11-29T13:45:27.086Z,13.63
2018-11-29T13:47:56.051Z,13.07
2018-11-29T13:50:24.562Z,13.80
2018-11-29T13:52:52.667Z,13.70
2018-11-29T13:55:20.893Z,12.70
2018-11-29T13:57:50.111Z,13.97
2018-11-29T14:00:21.265Z,13.57
2018-11-29T14:02:53.302Z,13.63
2018-11-29T14:05:21.597Z,13.10
2018-11-29T14:07:49.747Z,14.13
2018-11-29T14:10:19.846Z,13.03
2018-11-29T14:12:49.187Z,13.47
2018-11-29T14:15:18.897Z,13.13
2018-11-29T14:17:47.032Z,12.57
2018-11-29T14:20:15.167Z,11.80
2018-11-29T14:22:43.830Z,13.17
2018-11-29T14:25:12.780Z,14.93
2018-11-29T14:27:41.779Z,14.27
2018-11-29T14:30:23.493Z,13.50
2018-11-29T14:32:52.471Z,13.83
2018-11-29T14:35:20.721Z,14.07
2018-11-29T14:37:48.944Z,12.70
2018-11-29T14:40:18.437Z,13.87
2018-11-29T14:42:46.722Z,16.50
2018-11-29T14:45:23.489Z,15.17
2018-11-29T14:47:52.081Z,14.47
2018-11-29T14:50:24.615Z,14.53
2018-11-29T14:52:52.704Z,17.80
2018-11-29T14:55:21.794Z,15.57
2018-11-29T14:57:49.141Z,15.50
2018-11-29T15:00:17.280Z,14.77
2018-11-29T15:02:45.452Z,19.97
2018-11-29T15:05:19.464Z,24.67
2018-11-29T15:07:47.616Z,17.17
2018-11-29T15:10:15.808Z,14.97
2018-11-29T15:12:43.980Z,15.07
2018-11-29T15:15:12.879Z,16.83
2018-11-29T15:17:41.968Z,15.00
2018-11-29T15:20:15.660Z,14.30
2018-11-29T15:22:43.818Z,14.83
2018-11-29T15:25:11.956Z,14.10
2018-11-29T15:27:40.147Z,13.43
2018-11-29T15:30:13.800Z,13.67
2018-11-29T15:32:41.988Z,13.77
2018-11-29T15:35:10.145Z,12.60
2018-11-29T15:37:38.314Z,11.87
2018-11-29T15:40:10.983Z,11.93
2018-11-29T15:42:39.143Z,29.10
2018-11-29T15:45:10.989Z,11.93
2018-11-29T15:47:39.236Z,33.70
2018-11-29T15:50:10.110Z,49.03
2018-11-29T15:52:38.380Z,15.07
2018-11-29T15:55:09.739Z,11.03
2018-11-29T15:57:38.143Z,10.57
2018-11-29T16:00:13.578Z,10.50
2018-11-29T16:02:42.193Z,10.63
2018-11-29T16:05:10.453Z,10.07
2018-11-29T16:07:38.900Z,11.30
2018-11-29T16:10:10.816Z,26.27
2018-11-29T16:12:39.372Z,23.87
2018-11-29T16:15:12.608Z,19.57
2018-11-29T16:17:41.219Z,13.13
2018-11-29T16:20:15.797Z,13.50
2018-11-29T16:22:43.974Z,12.73
2018-11-29T16:25:12.157Z,13.70
2018-11-29T16:27:40.352Z,12.47
2018-11-29T16:30:33.352Z,11.87
2018-11-29T16:33:04.582Z,11.73
2018-11-29T16:35:32.739Z,11.53
2018-11-29T16:38:00.918Z,13.10
2018-11-29T16:40:29.109Z,13.87
2018-11-29T16:42:57.227Z,13.70
2018-11-29T16:45:25.399Z,11.93
2018-11-29T16:47:53.540Z,10.33
2018-11-29T16:50:21.690Z,9.60
2018-11-29T16:52:49.860Z,12.33
2018-11-29T16:55:18.085Z,12.70
2018-11-29T16:57:48.026Z,13.40
2018-11-29T17:00:21.246Z,11.80
2018-11-29T17:02:49.589Z,10.73
2018-11-29T17:05:17.768Z,11.17
2018-11-29T17:07:46.050Z,12.23
2018-11-29T17:10:16.398Z,13.03
2018-11-29T17:12:46.356Z,13.37
2018-11-29T17:15:17.002Z,14.03
2018-11-29T17:17:45.646Z,13.43
2018-11-29T17:20:15.065Z,13.67
2018-11-29T17:22:43.475Z,13.03
2018-11-29T17:25:24.650Z,12.43
2018-11-29T17:27:52.788Z,12.07
2018-11-29T17:30:23.647Z,11.83
2018-11-29T17:32:54.013Z,13.00
2018-11-29T17:35:22.132Z,13.37
2018-11-29T17:37:50.429Z,12.97
2018-11-29T17:40:19.557Z,13.23
2018-11-29T17:42:47.795Z,12.77
2018-11-29T17:45:18.175Z,13.23
2018-11-29T17:47:47.011Z,13.07
2018-11-29T17:50:19.661Z,14.07
2018-11-29T17:52:47.833Z,13.33
2018-11-29T17:55:16.088Z,12.00
2018-11-29T17:57:44.213Z,13.00
2018-11-29T18:00:29.471Z,11.53
2018-11-29T18:02:57.631Z,10.07
2018-11-29T18:05:25.788Z,10.43
2018-11-29T18:07:53.907Z,11.47
2018-11-29T18:10:27.648Z,11.33
2018-11-29T18:12:58.351Z,13.80
2018-11-29T18:15:28.266Z,13.77
2018-11-29T18:17:56.657Z,11.90
2018-11-29T18:20:24.813Z,11.77
2018-11-29T18:22:52.964Z,11.27
2018-11-29T18:25:22.094Z,10.80
2018-11-29T18:27:51.468Z,10.83
2018-11-29T18:30:20.738Z,11.20
2018-11-29T18:32:49.178Z,12.13
2018-11-29T18:35:17.398Z,12.70
2018-11-29T18:37:45.549Z,12.73
2018-11-29T18:40:20.843Z,12.17
2018-11-29T18:42:52.512Z,12.13
2018-11-29T18:45:21.056Z,11.33
2018-11-29T18:47:50.172Z,12.37
2018-11-29T18:50:20.385Z,11.93
2018-11-29T18:52:48.807Z,11.83
2018-11-29T18:55:17.322Z,13.47
2018-11-29T18:57:45.617Z,13.00
2018-11-29T19:00:21.616Z,13.97
2018-11-29T19:02:49.748Z,13.90
2018-11-29T19:05:17.982Z,13.07
2018-11-29T19:07:46.119Z,13.83
2018-11-29T19:10:15.137Z,14.27
2018-11-29T19:12:49.500Z,14.80
2018-11-29T19:15:17.661Z,14.00
2018-11-29T19:17:45.768Z,14.43
2018-11-29T19:20:14.297Z,14.20
2018-11-29T19:22:42.423Z,17.03
2018-11-29T19:25:14.057Z,16.67
2018-11-29T19:27:42.420Z,14.27
2018-11-29T19:30:17.173Z,14.73
2018-11-29T19:32:46.952Z,12.73
2018-11-29T19:35:15.160Z,12.80
2018-11-29T19:37:43.292Z,13.03
2018-11-29T19:40:13.067Z,13.83
2018-11-29T19:42:41.292Z,13.10
2018-11-29T19:45:11.710Z,13.03
2018-11-29T19:47:40.577Z,13.90
2018-11-29T19:50:25.643Z,15.00
2018-11-29T19:52:55.416Z,15.13
2018-11-29T19:55:25.884Z,15.17
2018-11-29T19:57:54.006Z,15.87
2018-11-29T20:00:22.189Z,15.57
2018-11-29T20:02:51.745Z,15.80
2018-11-29T20:05:19.899Z,14.73
2018-11-29T20:07:48.052Z,15.60
2018-11-29T20:10:17.227Z,15.80
2018-11-29T20:12:47.292Z,15.60
2018-11-29T20:15:17.634Z,15.87
2018-11-29T20:17:45.841Z,15.37
2018-11-29T20:20:13.978Z,15.93
2018-11-29T20:22:42.335Z,14.20
2018-11-29T20:25:14.510Z,13.80
2018-11-29T20:27:43.179Z,15.10
2018-11-29T20:30:13.560Z,13.33
2018-11-29T20:32:42.037Z,12.20
2018-11-29T20:35:10.872Z,14.73
2018-11-29T20:37:39.176Z,12.93
2018-11-29T20:40:15.736Z,14.13
2018-11-29T20:42:44.596Z,13.83
2018-11-29T20:45:15.482Z,15.13
2018-11-29T20:47:43.681Z,13.93
2018-11-29T20:50:14.839Z,14.10
2018-11-29T20:52:42.625Z,14.83
2018-11-29T20:55:13.291Z,15.47
2018-11-29T20:57:41.546Z,12.97
2018-11-29T21:00:14.147Z,13.93
2018-11-29T21:02:42.352Z,13.07
2018-11-29T21:05:12.892Z,13.97
2018-11-29T21:07:42.097Z,13.30
2018-11-29T21:10:13.827Z,14.50
2018-11-29T21:12:42.341Z,13.93
2018-11-29T21:15:10.932Z,12.17
2018-11-29T21:17:39.200Z,13.10
2018-11-29T21:20:09.279Z,13.63
2018-11-29T21:22:37.596Z,13.23
2018-11-29T21:25:09.210Z,13.17
2018-11-29T21:27:37.372Z,13.70
2018-11-29T21:30:10.920Z,12.90
2018-11-29T21:32:39.096Z,12.70
2018-11-29T21:35:08.149Z,13.83
2018-11-29T21:37:36.304Z,14.33
2018-11-29T21:40:09.727Z,14.00
2018-11-29T21:42:39.247Z,13.70
2018-11-29T21:45:06.367Z,14.00
2018-11-29T21:47:35.332Z,14.47
2018-11-29T21:50:04.206Z,13.50
2018-11-29T21:52:38.745Z,15.17
2018-11-29T21:55:07.577Z,15.47
2018-11-29T21:57:35.730Z,17.40
2018-11-29T22:00:07.820Z,16.37
2018-11-29T22:02:35.937Z,17.07
2018-11-29T22:05:04.674Z,16.73
2018-11-29T22:07:32.791Z,16.87
2018-11-29T22:10:01.012Z,16.33
2018-11-29T22:12:29.141Z,15.77
2018-11-29T22:14:57.312Z,15.13
2018-11-29T22:17:25.453Z,15.70
2018-11-29T22:19:53.605Z,13.73
2018-11-29T22:22:21.724Z,12.93
2018-11-29T22:24:49.878Z,13.97
2018-11-29T22:27:18.568Z,14.30
2018-11-29T22:29:46.729Z,14.03
2018-11-29T22:32:14.858Z,14.97
2018-11-29T22:34:42.992Z,16.13
2018-11-29T22:37:11.112Z,16.37
2018-11-29T22:39:39.260Z,17.00
2018-11-29T22:42:13.811Z,17.27
2018-11-29T22:44:41.952Z,16.60
2018-11-29T22:47:10.109Z,17.90
2018-11-29T22:49:38.275Z,17.07
2018-11-29T22:52:06.472Z,16.50
2018-11-29T22:54:34.630Z,16.33
2018-11-29T22:57:02.772Z,17.10
2018-11-29T22:59:31.010Z,16.33
2018-11-29T23:01:59.172Z,15.60
2018-11-29T23:04:27.360Z,15.87
2018-11-29T23:06:55.516Z,14.90
2018-11-29T23:09:23.676Z,14.57
2018-11-29T23:11:51.868Z,15.77
2018-11-29T23:14:20.024Z,15.60
2018-11-29T23:16:48.195Z,16.63
2018-11-29T23:19:16.364Z,16.03
2018-11-29T23:21:44.506Z,16.37
2018-11-29T23:24:12.662Z,15.53
2018-11-29T23:26:40.804Z,15.40
2018-11-29T23:29:08.967Z,15.20
2018-11-29T23:31:37.172Z,14.53
2018-11-29T23:34:06.007Z,14.80
2018-11-29T23:36:34.156Z,15.03
2018-11-29T23:39:02.352Z,15.40
2018-11-29T23:41:30.514Z,15.87
2018-11-29T23:43:58.676Z,15.40
2018-11-29T23:46:26.897Z,15.13
2018-11-29T23:48:55.039Z,14.90
2018-11-29T23:51:23.237Z,14.37
2018-11-29T23:53:51.392Z,15.57
2018-11-29T23:56:19.584Z,15.30
2018-11-29T23:58:47.736Z,15.37
